Time;durP1;ratioP1;P1;durP2;ratioP2;P2;SDS_P1;SDS_P2;PMS_P1;PMS_P2;Temp;Humidity;BMP_temperature;BMP_pressure;BME280_temperature;BME280_humidity;BME280_pressure;Samples;Min_cycle;Max_cycle;Signal;HPM_P1;HPM_P2
2022/05/28 00:01:18;;;;;;;4.63;1.17;;;;;;;7.48;100.00;99353.75;5044460;28;20369;-90
2022/05/28 00:04:05;;;;;;;3.65;1.10;;;;;;;7.32;100.00;99347.13;5031464;28;20040;-90
2022/05/28 00:06:49;;;;;;;6.07;2.15;;;;;;;7.26;100.00;99341.13;5053167;28;20037;-90
2022/05/28 00:09:34;;;;;;;4.05;1.00;;;;;;;7.34;100.00;99356.59;5051628;28;20036;-90
2022/05/28 00:12:23;;;;;;;3.83;1.15;;;;;;;7.47;100.00;99355.50;5038782;28;20041;-91
2022/05/28 00:15:08;;;;;;;5.45;1.48;;;;;;;7.48;100.00;99336.34;5038620;28;20052;-89
2022/05/28 00:17:53;;;;;;;3.35;1.30;;;;;;;7.43;100.00;99330.34;5030590;28;20037;-90
2022/05/28 00:20:38;;;;;;;5.43;1.42;;;;;;;7.49;100.00;99351.09;5024959;28;20174;-90
2022/05/28 00:23:23;;;;;;;6.65;1.38;;;;;;;7.46;100.00;99345.94;5043564;28;20040;-90
2022/05/28 00:26:07;;;;;;;4.90;1.00;;;;;;;7.45;100.00;99338.16;5052353;28;20043;-90
2022/05/28 00:28:52;;;;;;;7.38;1.27;;;;;;;7.43;100.00;99339.94;5052350;28;20479;-90
2022/05/28 00:31:37;;;;;;;5.15;1.40;;;;;;;7.41;100.00;99337.38;5038636;28;20399;-90
2022/05/28 00:34:22;;;;;;;8.18;1.45;;;;;;;7.41;100.00;99345.19;5052224;28;20033;-90
2022/05/28 00:37:07;;;;;;;2.92;1.02;;;;;;;7.30;100.00;99320.22;5023806;28;20041;-91
2022/05/28 00:39:52;;;;;;;2.88;1.13;;;;;;;7.37;100.00;99335.69;5038037;28;20514;-91
2022/05/28 00:42:36;;;;;;;4.45;1.20;;;;;;;7.36;100.00;99317.50;5052620;28;20090;-90
2022/05/28 00:45:21;;;;;;;3.65;0.80;;;;;;;7.40;100.00;99327.81;5052400;28;20037;-90
2022/05/28 00:48:07;;;;;;;5.53;1.10;;;;;;;7.45;100.00;99327.75;5041783;28;20036;-90
2022/05/28 00:50:52;;;;;;;5.25;1.40;;;;;;;7.39;100.00;99328.72;5052072;28;20438;-90
2022/05/28 00:53:36;;;;;;;3.65;0.68;;;;;;;7.34;100.00;99320.13;5052235;28;20404;-90
2022/05/28 00:56:22;;;;;;;4.63;1.20;;;;;;;7.29;100.00;99314.16;5023883;28;20037;-90
2022/05/28 00:59:08;;;;;;;3.45;1.20;;;;;;;7.22;100.00;99331.66;5052259;28;20407;-89
2022/05/28 01:02:00;;;;;;;7.75;2.17;;;;;;;7.00;100.00;99292.13;5038473;28;20095;-89
2022/05/28 01:05:07;;;;;;;4.50;0.95;;;;;;;7.29;100.00;99315.91;5052032;28;20116;-90
2022/05/28 01:08:07;;;;;;;4.25;1.10;;;;;;;7.24;100.00;99329.00;5026539;28;20037;-89
2022/05/28 01:11:05;;;;;;;4.35;0.93;;;;;;;7.20;100.00;99327.34;5031151;28;20114;-90
2022/05/28 01:14:06;;;;;;;6.07;1.05;;;;;;;7.07;100.00;99300.69;5023911;28;20037;-89
2022/05/28 01:16:59;;;;;;;6.38;1.23;;;;;;;7.18;100.00;99334.31;5026993;28;20376;-90
2022/05/28 01:19:53;;;;;;;5.63;1.05;;;;;;;6.95;100.00;99301.75;5036982;28;20033;-90
2022/05/28 01:23:02;;;;;;;5.47;1.08;;;;;;;7.02;100.00;99320.75;5051316;28;20036;-91
2022/05/28 01:25:55;;;;;;;4.20;1.20;;;;;;;7.06;100.00;99325.00;5022569;28;20094;-90
2022/05/28 01:28:45;;;;;;;4.22;0.90;;;;;;;6.96;100.00;99300.88;5031245;28;20033;-89
2022/05/28 01:31:31;;;;;;;5.55;1.27;;;;;;;7.06;100.00;99312.00;5051523;28;20048;-90
2022/05/28 01:34:18;;;;;;;2.50;0.90;;;;;;;6.95;100.00;99311.31;5050929;28;20061;-90
2022/05/28 01:37:03;;;;;;;4.07;0.98;;;;;;;6.83;100.00;99299.41;5023258;28;20106;-90
2022/05/28 01:39:50;;;;;;;2.83;0.80;;;;;;;6.83;100.00;99296.78;5030733;28;20112;-90
2022/05/28 01:42:37;;;;;;;7.72;0.85;;;;;;;6.79;100.00;99301.19;5023561;28;20400;-90
2022/05/28 01:45:29;;;;;;;3.60;0.75;;;;;;;6.68;100.00;99290.09;5051391;28;20357;-90
2022/05/28 01:48:16;;;;;;;4.68;1.25;;;;;;;6.64;100.00;99279.78;5036782;28;20037;-90
2022/05/28 01:51:02;;;;;;;6.43;1.08;;;;;;;6.69;100.00;99293.56;5051202;28;20036;-90
2022/05/28 01:56:52;;;;;;;4.50;1.02;;;;;;;6.64;100.00;99285.84;5050698;28;20115;-90
2022/05/28 01:59:38;;;;;;;6.47;1.83;;;;;;;6.63;100.00;99280.66;5035787;28;20561;-90
2022/05/28 02:02:23;;;;;;;4.68;1.00;;;;;;;6.59;100.00;99271.19;5041570;28;20037;-90
2022/05/28 02:05:09;;;;;;;2.00;0.77;;;;;;;6.69;100.00;99283.16;5036529;28;20041;-90
2022/05/28 02:07:54;;;;;;;6.88;1.20;;;;;;;6.59;100.00;99295.47;5043264;28;20434;-90
2022/05/28 02:10:46;;;;;;;6.47;1.52;;;;;;;6.46;100.00;99281.78;5036658;28;20037;-90
2022/05/28 02:13:57;;;;;;;9.52;1.10;;;;;;;6.46;100.00;99275.72;5051034;28;20179;-90
2022/05/28 02:17:19;;;;;;;4.90;1.08;;;;;;;6.53;100.00;99292.94;5021383;28;20053;-90
2022/05/28 02:20:19;;;;;;;4.68;0.98;;;;;;;6.40;100.00;99266.31;5049980;28;20495;-90
2022/05/28 02:23:14;;;;;;;2.75;0.80;;;;;;;6.42;100.00;99267.13;5025726;28;20037;-90
2022/05/28 02:26:12;;;;;;;6.53;1.15;;;;;;;6.48;100.00;99260.97;5036505;28;20080;-90
2022/05/28 02:29:00;;;;;;;6.00;1.00;;;;;;;6.48;100.00;99281.78;5036481;28;20041;-90
2022/05/28 02:31:46;;;;;;;5.10;1.33;;;;;;;6.39;100.00;99271.53;5034931;28;20125;-90
2022/05/28 02:34:30;;;;;;;7.80;1.02;;;;;;;6.33;100.00;99264.66;5050420;28;20040;-91
2022/05/28 02:37:18;;;;;;;3.08;1.10;;;;;;;6.33;100.00;99265.53;5042600;28;20412;-90
2022/05/28 02:40:03;;;;;;;4.28;1.00;;;;;;;6.31;100.00;99253.44;5036102;28;20407;-91
2022/05/28 02:42:48;;;;;;;5.72;1.58;;;;;;;6.36;100.00;99266.38;5050151;28;20037;-90
2022/05/28 02:45:33;;;;;;;2.42;0.77;;;;;;;6.29;100.00;99257.81;5050306;28;20036;-91
2022/05/28 02:48:17;;;;;;;4.82;2.00;;;;;;;6.41;100.00;99272.38;5038615;28;20037;-90
2022/05/28 02:51:15;;;;;;;4.30;1.05;;;;;;;6.26;100.00;99263.91;5035322;28;20044;-90
2022/05/28 02:53:59;;;;;;;5.40;1.05;;;;;;;6.34;100.00;99256.00;5034949;28;20033;-90
2022/05/28 02:56:44;;;;;;;3.92;1.20;;;;;;;6.35;100.00;99252.50;5035889;28;20040;-91
2022/05/28 02:59:28;;;;;;;5.57;1.73;;;;;;;6.53;100.00;99275.63;5040941;28;20040;-89
2022/05/28 03:02:13;;;;;;;4.25;0.90;;;;;;;6.53;100.00;99270.41;5049598;28;20699;-90
2022/05/28 03:04:58;;;;;;;6.10;1.08;;;;;;;6.51;100.00;99248.75;5028025;28;20395;-90
2022/05/28 03:07:43;;;;;;;3.58;1.02;;;;;;;6.61;100.00;99252.06;5049395;28;20045;-90
2022/05/28 03:10:27;;;;;;;3.45;0.88;;;;;;;6.76;100.00;99261.34;5034910;28;20041;-90
2022/05/28 03:13:13;;;;;;;6.30;1.45;;;;;;;6.77;100.00;99263.91;5038056;28;20045;-90
2022/05/28 03:15:57;;;;;;;4.72;1.08;;;;;;;6.74;100.00;99243.13;5054152;28;20419;-90
2022/05/28 03:18:42;;;;;;;5.80;1.30;;;;;;;6.79;100.00;99263.88;5028285;28;20063;-90
2022/05/28 03:21:26;;;;;;;4.50;1.42;;;;;;;6.73;100.00;99264.84;5025608;28;20062;-91
2022/05/28 03:24:10;;;;;;;4.22;1.30;;;;;;;6.89;100.00;99272.38;5039530;28;20462;-91
2022/05/28 03:26:57;;;;;;;5.22;0.80;;;;;;;6.81;100.00;99258.66;5053735;28;20124;-90
2022/05/28 03:29:42;;;;;;;4.15;1.90;;;;;;;6.90;100.00;99261.09;5053917;28;20134;-90
2022/05/28 03:32:26;;;;;;;3.25;0.65;;;;;;;7.00;100.00;99265.22;5052029;28;20472;-90
2022/05/28 03:35:10;;;;;;;7.03;0.98;;;;;;;7.12;100.00;99269.34;5052213;28;20051;-90
2022/05/28 03:37:54;;;;;;;6.18;1.48;;;;;;;7.06;100.00;99262.50;5053870;28;20118;-90
2022/05/28 03:40:39;;;;;;;4.25;0.93;;;;;;;7.24;100.00;99271.69;5053102;28;20037;-90
2022/05/28 03:43:23;;;;;;;1.80;0.80;;;;;;;7.19;100.00;99261.38;5024937;28;20041;-90
2022/05/28 03:46:19;;;;;;;4.85;0.60;;;;;;;7.28;100.00;99272.50;5038918;28;20044;-90
2022/05/28 03:49:07;;;;;;;6.72;1.05;;;;;;;7.30;100.00;99279.38;5030667;28;20032;-90
2022/05/28 03:51:52;;;;;;;4.70;0.80;;;;;;;7.09;100.00;99261.59;5047283;28;20090;-90
2022/05/28 03:54:43;;;;;;;5.00;1.08;;;;;;;7.16;100.00;99266.66;5053300;28;20037;-90
2022/05/28 03:57:32;;;;;;;5.82;1.20;;;;;;;7.32;100.00;99271.56;5053201;28;20049;-89
2022/05/28 04:00:17;;;;;;;9.15;1.20;;;;;;;7.43;100.00;99272.19;5042857;28;20045;-90
2022/05/28 04:03:03;;;;;;;6.75;1.02;;;;;;;7.72;100.00;99276.78;5039218;28;20916;-90
2022/05/28 04:05:47;;;;;;;8.05;1.08;;;;;;;8.21;100.00;99273.03;5039123;28;20037;-90
2022/05/28 04:08:31;;;;;;;6.22;0.90;;;;;;;8.50;100.00;99266.28;5051693;28;20036;-89
2022/05/28 04:11:17;;;;;;;5.03;1.10;;;;;;;9.00;100.00;99270.22;5025183;28;20037;-90
2022/05/28 04:14:02;;;;;;;5.45;1.15;;;;;;;9.13;100.00;99271.59;5052113;28;20468;-90
2022/05/28 04:16:46;;;;;;;5.32;0.93;;;;;;;9.74;100.00;99282.00;5051999;28;20041;-90
2022/05/28 04:19:31;;;;;;;3.05;0.98;;;;;;;9.40;100.00;99292.63;5038291;28;20037;-90
2022/05/28 04:22:16;;;;;;;4.32;1.00;;;;;;;9.88;100.00;99283.34;5024346;28;20154;-90
2022/05/28 04:25:00;;;;;;;2.65;0.73;;;;;;;9.48;100.00;99274.09;5036896;28;20820;-89
2022/05/28 04:27:45;;;;;;;5.22;1.25;;;;;;;9.84;100.00;99278.22;5037712;28;20087;-90
2022/05/28 04:30:29;;;;;;;5.80;1.30;;;;;;;9.84;100.00;99272.13;5052693;28;21411;-90
2022/05/28 04:33:13;;;;;;;5.03;0.95;;;;;;;10.02;100.00;99265.50;5052016;28;20064;-90
2022/05/28 04:35:58;;;;;;;4.68;1.23;;;;;;;10.06;100.00;99274.94;5037765;28;20033;-90
2022/05/28 04:38:42;;;;;;;6.13;1.13;;;;;;;9.53;100.00;99266.97;5036530;28;20407;-91
2022/05/28 04:41:27;;;;;;;4.28;0.82;;;;;;;10.03;100.00;99282.88;5045126;28;20430;-90
2022/05/28 04:44:12;;;;;;;3.17;0.85;;;;;;;10.27;100.00;99273.47;5052353;28;20468;-90
2022/05/28 04:46:56;;;;;;;4.20;0.95;;;;;;;10.89;100.00;99280.13;5024846;28;20055;-90
2022/05/28 04:49:40;;;;;;;3.90;0.70;;;;;;;10.49;100.00;99271.81;5044363;28;20033;-90
2022/05/28 04:52:25;;;;;;;4.93;0.70;;;;;;;10.49;100.00;99278.81;5037978;28;20095;-91
2022/05/28 04:55:10;;;;;;;5.85;0.63;;;;;;;11.21;100.00;99292.06;5038337;28;20037;-90
2022/05/28 04:57:55;;;;;;;4.20;0.60;;;;;;;10.90;100.00;99268.72;5038445;28;20037;-90
2022/05/28 05:00:40;;;;;;;3.90;0.70;;;;;;;11.16;100.00;99265.19;5051565;28;20029;-90
2022/05/28 05:03:25;;;;;;;5.75;0.90;;;;;;;10.55;100.00;99276.00;5044215;28;20037;-89
2022/05/28 05:06:10;;;;;;;4.43;0.90;;;;;;;10.25;100.00;99290.94;5051919;28;20045;-90
2022/05/28 05:08:55;;;;;;;3.80;0.60;;;;;;;9.86;100.00;99265.09;5034749;28;20416;-91
2022/05/28 05:11:40;;;;;;;2.58;0.60;;;;;;;10.47;100.00;99265.81;5052071;28;20504;-90
2022/05/28 05:14:25;;;;;;;4.75;0.52;;;;;;;10.88;100.00;99284.47;5051578;28;20103;-89
2022/05/28 05:17:09;;;;;;;3.50;1.65;;;;;;;10.87;100.00;99274.06;5037215;28;20044;-90
2022/05/28 05:19:54;;;;;;;3.33;0.60;;;;;;;10.49;100.00;99289.31;5051345;28;20041;-89
2022/05/28 05:22:38;;;;;;;2.33;0.28;;;;;;;11.55;100.00;99277.75;5037417;28;20041;-90
2022/05/28 05:25:23;;;;;;;4.20;0.95;;;;;;;11.00;100.00;99285.81;5042781;28;20037;-90
2022/05/28 05:28:08;;;;;;;4.57;0.68;;;;;;;10.56;100.00;99274.25;5022898;28;20423;-91
2022/05/28 05:30:53;;;;;;;3.70;0.57;;;;;;;10.76;100.00;99300.63;5043112;28;20040;-91
2022/05/28 05:33:37;;;;;;;3.22;0.47;;;;;;;11.52;100.00;99278.69;5023351;28;20037;-91
2022/05/28 05:36:21;;;;;;;4.07;0.80;;;;;;;10.77;100.00;99284.00;5022874;28;20051;-90
2022/05/28 05:39:05;;;;;;;3.00;0.93;;;;;;;12.03;100.00;99277.66;5050622;28;20036;-90
2022/05/28 05:41:50;;;;;;;6.63;1.08;;;;;;;12.05;100.00;99262.69;5037354;28;20033;-90
2022/05/28 05:44:34;;;;;;;4.88;1.33;;;;;;;11.57;100.00;99273.28;5050265;28;20090;-89
2022/05/28 05:47:19;;;;;;;2.55;0.47;;;;;;;12.47;100.00;99275.00;5024944;28;20036;-91
2022/05/28 05:50:05;;;;;;;3.10;0.45;;;;;;;11.96;100.00;99267.44;5023177;28;20492;-89
2022/05/28 05:52:50;;;;;;;3.15;0.70;;;;;;;11.89;100.00;99275.59;5051224;28;20037;-90
2022/05/28 05:55:34;;;;;;;3.50;0.68;;;;;;;11.88;100.00;99262.50;5050372;28;20029;-90
2022/05/28 05:58:19;;;;;;;5.32;0.45;;;;;;;11.87;100.00;99255.56;5043003;28;20483;-89
2022/05/28 06:01:04;;;;;;;4.10;0.47;;;;;;;12.16;100.00;99260.50;5023629;28;20043;-90
2022/05/28 06:03:49;;;;;;;4.05;0.40;;;;;;;11.49;100.00;99260.47;5050909;28;20044;-89
2022/05/28 06:06:33;;;;;;;5.70;1.08;;;;;;;11.69;100.00;99268.41;5050455;28;20037;-90
2022/05/28 06:09:18;;;;;;;9.85;1.20;;;;;;;12.38;100.00;99257.00;5051192;28;20033;-90
2022/05/28 06:12:03;;;;;;;2.38;0.40;;;;;;;12.66;100.00;99258.47;5043710;28;20425;-91
2022/05/28 06:14:47;;;;;;;4.53;0.77;;;;;;;12.13;100.00;99259.78;5044977;28;20078;-90
2022/05/28 06:17:34;;;;;;;4.70;0.40;;;;;;;11.46;100.00;99248.31;5050686;28;20534;-90
2022/05/28 06:20:21;;;;;;;4.88;0.50;;;;;;;12.50;100.00;99248.63;5032958;28;20044;-90
2022/05/28 06:23:05;;;;;;;2.70;0.20;;;;;;;12.88;100.00;99268.94;5038596;28;20093;-90
2022/05/28 06:25:50;;;;;;;2.47;0.43;;;;;;;12.25;100.00;99245.28;5035503;28;20040;-90
2022/05/28 06:28:35;;;;;;;4.53;0.50;;;;;;;12.11;100.00;99241.44;5049789;28;20032;-90
2022/05/28 06:31:20;;;;;;;3.72;0.50;;;;;;;12.41;100.00;99254.25;5036071;28;20040;-89
2022/05/28 06:34:04;;;;;;;4.22;0.80;;;;;;;12.52;100.00;99259.06;5022049;28;20033;-90
2022/05/28 06:36:49;;;;;;;4.93;0.63;;;;;;;13.89;100.00;99248.63;5035959;28;20045;-90
2022/05/28 06:39:35;;;;;;;3.05;0.45;;;;;;;13.45;100.00;99249.75;5037196;28;20037;-92
2022/05/28 06:42:19;;;;;;;5.03;0.80;;;;;;;13.30;100.00;99251.31;5023024;28;20438;-89
2022/05/28 06:45:04;;;;;;;3.08;0.60;;;;;;;12.79;100.00;99250.00;5050353;28;20041;-87
2022/05/28 06:47:49;;;;;;;6.28;1.02;;;;;;;13.55;100.00;99235.28;5049160;28;20037;-89
2022/05/28 06:53:40;;;;;;;4.47;0.47;;;;;;;14.88;100.00;99238.47;5048426;28;20037;-89
2022/05/28 06:56:24;;;;;;;3.85;0.52;;;;;;;13.48;100.00;99254.03;5048864;28;20040;-90
2022/05/28 06:59:08;;;;;;;3.03;0.38;;;;;;;12.85;100.00;99241.88;5048785;28;20059;-90
2022/05/28 07:01:55;;;;;;;4.70;0.40;;;;;;;12.80;100.00;99242.97;5020829;28;20120;-88
2022/05/28 07:04:39;;;;;;;4.97;0.47;;;;;;;13.65;100.00;99246.22;5034550;28;20041;-88
2022/05/28 07:07:23;;;;;;;3.60;0.70;;;;;;;12.85;100.00;99251.53;5048471;28;20040;-89
2022/05/28 07:10:09;;;;;;;2.65;0.45;;;;;;;12.98;100.00;99242.19;5048429;28;20498;-88
2022/05/28 07:12:53;;;;;;;6.40;0.60;;;;;;;12.96;100.00;99245.78;5048626;28;20033;-89
2022/05/28 07:15:38;;;;;;;3.40;0.60;;;;;;;12.63;100.00;99252.44;5048661;28;20048;-88
2022/05/28 07:18:22;;;;;;;3.60;0.70;;;;;;;13.18;96.75;99237.81;5048650;28;20118;-89
2022/05/28 07:21:08;;;;;;;4.93;0.32;;;;;;;14.46;92.57;99239.69;5039707;28;20041;-89
2022/05/28 07:23:54;;;;;;;4.65;0.50;;;;;;;15.15;90.19;99225.63;5021004;28;20388;-89
2022/05/28 07:26:40;;;;;;;4.97;0.82;;;;;;;13.97;96.80;99235.94;5048837;28;20056;-88
2022/05/28 07:29:24;;;;;;;4.03;0.50;;;;;;;13.25;100.00;99223.50;5037413;28;20040;-90
2022/05/28 07:32:09;;;;;;;4.65;0.73;;;;;;;13.51;100.00;99233.69;5035516;28;20045;-88
2022/05/28 07:34:53;;;;;;;7.78;0.88;;;;;;;13.26;100.00;99231.34;5035133;28;20041;-90
2022/05/28 07:37:37;;;;;;;1.85;0.40;;;;;;;14.53;100.00;99215.66;5049095;28;20127;-90
2022/05/28 07:40:21;;;;;;;1.73;0.30;;;;;;;15.04;93.13;99211.28;5041769;28;20058;-91
2022/05/28 07:43:06;;;;;;;3.47;0.55;;;;;;;15.23;93.49;99209.38;5020908;28;20056;-90
2022/05/28 07:45:51;;;;;;;3.67;0.63;;;;;;;14.42;97.49;99211.75;5049931;28;20033;-90
2022/05/28 07:48:35;;;;;;;1.67;0.30;;;;;;;14.87;87.03;99186.66;5050410;28;20033;-91
2022/05/28 07:51:19;;;;;;;1.45;0.45;;;;;;;14.32;87.49;99207.03;5049684;28;20159;-90
2022/05/28 07:54:05;;;;;;;3.00;0.20;;;;;;;15.67;83.68;99200.88;5048984;28;20503;-89
2022/05/28 07:56:49;;;;;;;5.47;0.45;;;;;;;16.19;74.94;99192.63;5023597;28;20094;-89
2022/05/28 07:59:35;;;;;;;1.60;0.20;;;;;;;14.83;79.88;99185.13;5050795;28;20097;-89
2022/05/28 08:02:20;;;;;;;2.83;0.45;;;;;;;14.67;82.79;99214.03;5039463;28;20456;-89
2022/05/28 08:05:06;;;;;;;4.93;0.47;;;;;;;13.18;95.42;99198.38;5045242;28;20407;-92
2022/05/28 08:07:50;;;;;;;2.17;0.22;;;;;;;11.88;100.00;99221.38;5036729;28;20045;-91
2022/05/28 08:10:35;;;;;;;7.18;0.30;;;;;;;11.44;100.00;99231.78;5053409;28;20033;-94
2022/05/28 08:13:23;;;;;;;2.08;0.43;;;;;;;11.15;100.00;99232.03;5040381;28;20069;-93
2022/05/28 08:16:09;;;;;;;3.67;0.60;;;;;;;12.39;100.00;99222.81;5052975;28;20075;-92
2022/05/28 08:18:54;;;;;;;1.77;0.60;;;;;;;13.15;100.00;99212.50;5052871;28;20453;-93
2022/05/28 08:24:41;;;;;;;;;;;;;;;14.37;100.00;99211.16;5052681;28;20086;-94
2022/05/28 08:27:27;;;;;;;4.72;0.60;;;;;;;13.45;100.00;99191.03;5025833;28;20055;-92
2022/05/28 08:30:12;;;;;;;3.55;0.90;;;;;;;13.86;100.00;99196.97;5052972;28;20037;-92
2022/05/28 08:32:57;;;;;;;3.90;0.60;;;;;;;14.78;99.11;99186.28;5024899;28;20041;-90
2022/05/28 08:35:43;;;;;;;4.10;0.52;;;;;;;15.03;89.49;99191.97;5052661;28;20037;-91
2022/05/28 08:38:28;;;;;;;1.80;0.30;;;;;;;15.16;89.81;99192.16;5040412;28;20044;-92
2022/05/28 08:41:18;;;;;;;3.63;0.38;;;;;;;15.41;87.89;99181.16;5038355;28;20041;-92
2022/05/28 08:44:18;;;;;;;2.90;0.65;;;;;;;14.36;86.60;99169.91;5052226;28;20040;-91
2022/05/28 08:47:12;;;;;;;3.03;0.60;;;;;;;13.74;88.12;99179.13;5052211;28;20149;-91
2022/05/28 08:49:57;;;;;;;8.52;1.70;;;;;;;13.07;88.31;99178.69;5023577;28;20044;-90
2022/05/28 08:52:56;;;;;;;0.50;0.10;;;;;;;13.84;88.83;99190.06;5050834;28;20033;-91
2022/05/28 08:55:44;;;;;;;4.28;0.57;;;;;;;13.32;86.19;99189.00;5023053;28;20033;-91
2022/05/28 08:58:30;;;;;;;2.97;0.45;;;;;;;13.59;85.85;99180.72;5035120;28;20048;-90
2022/05/28 09:01:20;;;;;;;2.72;0.28;;;;;;;13.15;84.82;99182.75;5024368;28;20068;-90
2022/05/28 09:04:11;;;;;;;4.00;0.70;;;;;;;12.52;89.88;99191.63;5023102;28;20029;-91
2022/05/28 09:07:00;;;;;;;5.32;1.55;;;;;;;13.76;91.17;99195.72;5036729;28;20045;-91
2022/05/28 09:09:47;;;;;;;3.65;0.57;;;;;;;15.20;86.85;99186.63;5052318;28;20040;-90
2022/05/28 09:12:39;;;;;;;5.32;0.70;;;;;;;14.76;85.19;99180.25;5044707;28;20709;-92
2022/05/28 09:15:24;;;;;;;2.38;0.35;;;;;;;15.96;82.82;99171.97;5052068;28;20047;-90
2022/05/28 09:18:12;;;;;;;1.10;0.38;;;;;;;15.73;81.82;99171.47;5052318;28;20049;-91
2022/05/28 09:20:56;;;;;;;2.83;0.43;;;;;;;14.15;87.76;99166.59;5051647;28;20124;-91
2022/05/28 09:23:46;;;;;;;1.38;0.35;;;;;;;13.15;89.07;99199.38;5044817;28;20037;-91
2022/05/28 09:26:45;;;;;;;3.10;0.30;;;;;;;12.83;89.39;99172.75;5008907;28;20051;-90
2022/05/28 09:29:50;;;;;;;4.25;0.68;;;;;;;13.68;87.29;99176.78;5034532;28;20032;-91
2022/05/28 09:32:56;;;;;;;2.67;0.60;;;;;;;15.24;80.85;99166.25;5025292;28;20040;-91
2022/05/28 09:35:55;;;;;;;5.28;0.80;;;;;;;15.67;82.40;99156.00;5051261;28;20063;-91
2022/05/28 09:39:03;;;;;;;2.85;1.00;;;;;;;15.20;82.88;99133.88;5033883;28;20049;-91
2022/05/28 09:41:52;;;;;;;4.38;0.55;;;;;;;14.94;84.09;99158.16;5050345;28;20040;-91
2022/05/28 09:44:46;;;;;;;2.33;0.52;;;;;;;14.01;84.90;99177.81;5042757;28;20118;-92
2022/05/28 09:47:46;;;;;;;6.35;0.40;;;;;;;14.32;84.80;99167.53;5014221;28;20049;-92
2022/05/28 09:50:42;;;;;;;6.10;1.80;;;;;;;15.27;79.44;99155.50;5028874;28;20063;-90
2022/05/28 09:56:42;;;;;;;3.92;1.23;;;;;;;15.02;82.17;99163.06;5050019;28;20037;-91
2022/05/28 09:59:35;;;;;;;5.30;2.88;;;;;;;15.55;78.96;99172.47;5048835;28;20434;-91
2022/05/28 10:02:25;;;;;;;13.80;12.00;;;;;;;13.69;80.45;99157.47;5023470;28;20052;-90
2022/05/28 10:05:17;;;;;;;32.17;28.88;;;;;;;13.12;86.08;99217.06;5022927;28;20080;-91
2022/05/28 10:08:09;;;;;;;3.30;0.65;;;;;;;10.45;100.00;99283.31;5004750;28;20037;-90
2022/05/28 10:10:57;;;;;;;6.28;0.55;;;;;;;8.80;100.00;99293.38;5038961;28;20037;-96
2022/05/28 10:13:47;;;;;;;2.53;1.98;;;;;;;8.83;100.00;99316.78;5029313;28;20052;-95
2022/05/28 10:16:38;;;;;;;37.55;18.85;;;;;;;8.88;100.00;99317.53;5049027;28;20119;-95
2022/05/28 10:19:28;;;;;;;119.20;54.97;;;;;;;8.30;100.00;99279.81;5014267;28;20060;-93
2022/05/28 10:22:22;;;;;;;22.52;12.85;;;;;;;8.20;100.00;99313.09;5010783;28;20060;-96
2022/05/28 10:25:23;;;;;;;11.68;6.88;;;;;;;8.48;100.00;99284.59;5031047;28;20045;-96
2022/05/28 10:28:10;;;;;;;12.95;5.88;;;;;;;8.39;100.00;99261.34;5032503;28;20411;-94
2022/05/28 10:30:55;;;;;;;2.92;0.73;;;;;;;8.45;100.00;99270.75;5027704;28;20135;-96
2022/05/28 10:33:43;;;;;;;10.40;2.30;;;;;;;9.46;100.00;99242.78;5053281;28;20045;-94
2022/05/28 10:36:32;;;;;;;3.58;1.25;;;;;;;10.01;100.00;99280.34;5037308;28;20032;-92
2022/05/28 10:39:18;;;;;;;4.15;0.40;;;;;;;10.62;100.00;99281.91;5020881;28;20036;-94
2022/05/28 10:42:03;;;;;;;1.60;0.75;;;;;;;10.70;100.00;99251.06;5036998;28;20033;-94
2022/05/28 10:44:48;;;;;;;3.72;1.10;;;;;;;10.98;100.00;99269.28;5051110;28;20049;-93
2022/05/28 10:47:53;;;;;;;1.75;0.75;;;;;;;12.74;100.00;99272.13;5037489;28;20040;-93
2022/05/28 10:50:59;;;;;;;11.90;2.83;;;;;;;12.84;100.00;99276.97;5047022;28;20037;-93
2022/05/28 10:54:17;;;;;;;5.78;0.75;;;;;;;13.69;100.00;99270.63;5049896;28;20040;-93
2022/05/28 10:57:22;;;;;;;1.50;0.70;;;;;;;13.50;100.00;99247.78;5050113;28;20041;-92
2022/05/28 11:00:14;;;;;;;2.85;1.40;;;;;;;13.75;100.00;99249.28;5026470;28;20068;-93
2022/05/28 11:03:30;;;;;;;3.30;0.60;;;;;;;13.65;100.00;99274.28;5049823;28;20095;-93
2022/05/28 11:06:31;;;;;;;2.90;0.73;;;;;;;14.57;100.00;99275.22;5013102;28;20048;-92
2022/05/28 11:09:57;;;;;;;6.85;3.53;;;;;;;14.87;100.00;99275.44;5048793;28;20098;-92
2022/05/28 11:12:49;;;;;;;6.63;4.07;;;;;;;15.13;100.00;99264.38;5049771;28;20033;-92
2022/05/28 11:16:01;;;;;;;1.45;0.47;;;;;;;14.21;100.00;99265.50;5050178;28;20099;-91
2022/05/28 11:19:08;;;;;;;4.20;1.92;;;;;;;14.62;100.00;99263.47;5021928;28;20057;-93
2022/05/28 11:22:08;;;;;;;3.15;1.50;;;;;;;15.70;100.00;99257.94;5022534;28;20041;-92
2022/05/28 11:24:54;;;;;;;1.75;0.77;;;;;;;15.83;100.00;99251.03;5023196;28;20067;-92
2022/05/28 11:28:13;;;;;;;2.47;0.30;;;;;;;15.32;100.00;99248.44;5026438;28;20041;-92
2022/05/28 11:31:17;;;;;;;0.77;0.50;;;;;;;14.81;100.00;99225.66;5024055;28;20048;-91
2022/05/28 11:34:10;;;;;;;2.42;0.60;;;;;;;15.38;100.00;99250.75;5003126;28;20057;-92
2022/05/28 11:37:23;;;;;;;1.27;0.50;;;;;;;14.29;100.00;99242.28;5027611;28;20047;-91
2022/05/28 11:40:18;;;;;;;0.85;0.28;;;;;;;13.54;100.00;99225.66;5054158;28;20037;-91
2022/05/28 11:43:11;;;;;;;3.70;0.65;;;;;;;13.83;100.00;99219.97;5053399;28;20610;-91
2022/05/28 11:46:04;;;;;;;2.33;0.35;;;;;;;14.31;100.00;99218.50;5039897;28;20041;-91
2022/05/28 11:52:26;;;;;;;3.00;0.45;;;;;;;14.94;100.00;99224.94;5035482;28;20049;-90
2022/05/28 11:55:19;;;;;;;1.35;0.40;;;;;;;15.16;100.00;99226.47;5039270;28;20048;-90
2022/05/28 11:58:15;;;;;;;;;;;;;;;15.99;100.00;99229.88;5038291;28;20384;-91
2022/05/28 12:01:10;;;;;;;0.95;0.40;;;;;;;15.81;100.00;99210.66;5022494;28;19928;-90
2022/05/28 12:03:55;;;;;;;2.75;0.35;;;;;;;15.15;100.00;99186.06;5051741;28;20091;-90
2022/05/28 12:06:48;;;;;;;2.22;0.50;;;;;;;15.20;100.00;99198.97;5052375;28;20055;-91
2022/05/28 12:09:40;;;;;;;4.93;4.32;;;;;;;14.48;100.00;99214.09;5027150;28;20120;-91
2022/05/28 12:12:35;;;;;;;9.23;8.43;;;;;;;14.06;100.00;99224.97;5037500;28;20110;-91
2022/05/28 12:15:25;;;;;;;0.57;0.57;;;;;;;13.97;100.00;99214.88;5039231;28;20040;-91
2022/05/28 12:18:22;;;;;;;2.53;0.65;;;;;;;14.27;100.00;99221.28;5037011;28;20064;-91
2022/05/28 12:21:07;;;;;;;1.38;0.45;;;;;;;13.68;100.00;99213.63;5036767;28;20041;-90
2022/05/28 12:24:05;;;;;;;2.20;0.95;;;;;;;12.70;100.00;99226.75;5047136;28;20526;-90
2022/05/28 12:30:00;;;;;;;3.47;1.15;;;;;;;11.60;100.00;99246.94;5051501;28;20041;-90
2022/05/28 12:32:49;;;;;;;3.22;1.90;;;;;;;12.18;100.00;99225.47;5038028;28;20486;-91
2022/05/28 12:35:49;;;;;;;8.57;4.90;;;;;;;12.93;100.00;99230.16;5051548;28;20064;-91
2022/05/28 12:38:42;;;;;;;5.63;3.95;;;;;;;14.35;100.00;99210.38;5037997;28;20041;-90
2022/05/28 12:41:32;;;;;;;0.95;0.57;;;;;;;15.04;100.00;99221.81;5051407;28;20040;-90
2022/05/28 12:44:22;;;;;;;0.75;0.28;;;;;;;15.09;100.00;99210.09;5037127;28;20036;-90
2022/05/28 12:47:07;;;;;;;1.08;0.30;;;;;;;14.69;100.00;99203.44;5023691;28;20041;-91
2022/05/28 12:50:19;;;;;;;1.33;0.22;;;;;;;14.61;100.00;99208.22;5037563;28;20464;-90
2022/05/28 12:53:21;;;;;;;2.75;1.20;;;;;;;15.15;100.00;99220.34;5051814;28;20037;-90
2022/05/28 12:56:20;;;;;;;2.60;0.40;;;;;;;14.51;100.00;99201.72;5028496;28;20036;-90
2022/05/28 12:59:27;;;;;;;1.45;0.28;;;;;;;14.46;100.00;99234.41;5038100;28;20071;-91
2022/05/28 13:02:38;;;;;;;2.20;0.20;;;;;;;15.13;100.00;99219.56;5023714;28;20427;-90
2022/05/28 13:05:40;;;;;;;3.35;0.30;;;;;;;14.55;100.00;99217.28;5050539;28;20037;-89
2022/05/28 13:08:28;;;;;;;7.63;2.35;;;;;;;13.78;100.00;99239.47;5036925;28;20040;-90
2022/05/28 13:11:21;;;;;;;3.53;1.42;;;;;;;13.98;100.00;99227.97;5037269;28;20096;-92
2022/05/28 13:14:43;;;;;;;4.00;2.03;;;;;;;14.65;100.00;99252.78;5029318;28;20040;-92
2022/05/28 13:18:05;;;;;;;3.78;2.05;;;;;;;13.96;100.00;99242.97;5030192;28;20079;-93
2022/05/28 13:21:02;;;;;;;57.80;40.27;;;;;;;13.45;100.00;99196.28;5023074;28;20087;-90
2022/05/28 13:23:55;;;;;;;36.17;31.20;;;;;;;14.38;100.00;99228.66;5036323;28;20108;-92
2022/05/28 13:26:49;;;;;;;9.93;7.95;;;;;;;14.90;100.00;99219.91;5036798;28;20029;-91
2022/05/28 13:29:57;;;;;;;24.33;15.25;;;;;;;14.96;100.00;99209.91;5030679;28;20036;-92
2022/05/28 13:32:41;;;;;;;18.42;10.80;;;;;;;15.49;100.00;99225.59;5023098;28;20442;-93